| Date | Time | Temp. (oF) | Dew Point (oF) | Rel. Hum. (%) | Press. (in.) | Wind Dir. | Wind Speed (mph) | Hourly Rainfall (in.) |
|
|---|---|---|---|---|---|---|---|---|---|
| 1 | 05/06 | 00:00 | 64 | 61 | 92 | 30.20 | SE | 4 | 0.00 |
| 2 | 05/05 | 23:00 | 67 | 60 | 79 | 30.18 | S | 9 | 0.21 |
| 3 | 05/05 | 22:00 | 70 | 58 | 68 | 30.18 | SSW | 0 | 0.00 |
| 4 | 05/05 | 21:00 | 73 | 58 | 60 | 30.16 | WNW | 0 | 0.00 |
| 5 | 05/05 | 20:00 | 75 | 57 | 54 | 30.15 | W | 0 | 0.00 |
| 6 | 05/05 | 19:00 | 76 | 56 | 52 | 30.14 | W | 0 | 0.00 |
| 7 | 05/05 | 18:00 | 77 | 57 | 51 | 30.14 | WSW | 1 | 0.00 |
| 8 | 05/05 | 17:00 | 78 | 58 | 52 | 30.15 | SSW | 0 | 0.00 |
| 9 | 05/05 | 16:00 | 77 | 59 | 55 | 30.17 | WSW | 0 | 0.00 |
| 10 | 05/05 | 15:00 | 77 | 58 | 53 | 30.19 | WNW | 0 | 0.00 |
| 11 | 05/05 | 14:00 | 76 | 58 | 54 | 30.20 | W | 1 | 0.00 |
| 12 | 05/05 | 13:00 | 78 | 58 | 51 | 30.21 | WNW | 3 | 0.00 |
| 13 | 05/05 | 12:00 | 78 | 58 | 52 | 30.22 | NNE | 4 | 0.00 |
| 14 | 05/05 | 11:00 | 76 | 59 | 56 | 30.22 | W | 4 | 0.00 |
| 15 | 05/05 | 10:00 | 69 | 60 | 75 | 30.22 | W | 4 | 0.00 |
| 16 | 05/05 | 09:00 | 63 | 58 | 86 | 30.22 | S | 0 | 0.00 |
| 17 | 05/05 | 08:00 | 59 | 55 | 88 | 30.21 | SSW | 0 | 0.00 |
| 18 | 05/05 | 07:00 | 58 | 54 | 88 | 30.19 | WSW | 0 | 0.00 |
| 19 | 05/05 | 06:00 | 57 | 52 | 85 | 30.17 | SW | 0 | 0.00 |
| 20 | 05/05 | 05:00 | 58 | 52 | 82 | 30.16 | S | 0 | 0.00 |
| 21 | 05/05 | 04:00 | 61 | 52 | 75 | 30.16 | S | 0 | 0.00 |
| 22 | 05/05 | 03:00 | 64 | 53 | 69 | 30.15 | W | 2 | 0.00 |
| 23 | 05/05 | 02:00 | 65 | 52 | 64 | 30.14 | SSW | 0 | 0.00 |
| 24 | 05/05 | 01:00 | 67 | 52 | 60 | 30.14 | S | 0 | 0.00 |